createdAt,value
2019-03-30T00:00:26.886Z,6.70
2019-03-30T00:02:55.364Z,6.80
2019-03-30T00:05:24.153Z,6.70
2019-03-30T00:07:52.637Z,6.70
2019-03-30T00:10:21.120Z,6.60
2019-03-30T00:12:49.600Z,6.60
2019-03-30T00:15:18.111Z,6.60
2019-03-30T00:17:46.556Z,6.60
2019-03-30T00:20:15.040Z,6.70
2019-03-30T00:22:43.445Z,6.60
2019-03-30T00:25:11.865Z,6.50
2019-03-30T00:27:40.351Z,6.60
2019-03-30T00:30:08.836Z,6.60
2019-03-30T00:32:37.244Z,6.60
2019-03-30T00:35:06.743Z,6.60
2019-03-30T00:37:35.152Z,6.70
2019-03-30T00:40:04.304Z,6.60
2019-03-30T00:42:32.712Z,6.60
2019-03-30T00:45:01.128Z,6.50
2019-03-30T00:47:29.543Z,6.50
2019-03-30T00:49:57.952Z,6.40
2019-03-30T00:52:26.369Z,6.40
2019-03-30T00:54:54.860Z,6.40
2019-03-30T00:57:23.278Z,6.40
2019-03-30T00:59:51.688Z,6.40
2019-03-30T01:02:20.100Z,6.40
2019-03-30T01:04:48.585Z,6.30
2019-03-30T01:07:17.022Z,6.30
2019-03-30T01:09:45.434Z,6.30
2019-03-30T01:12:13.860Z,6.30
2019-03-30T01:14:42.268Z,6.30
2019-03-30T01:17:10.956Z,6.20
2019-03-30T01:19:39.363Z,6.20
2019-03-30T01:22:07.916Z,6.10
2019-03-30T01:24:36.400Z,6.10
2019-03-30T01:27:05.143Z,6.10
2019-03-30T01:29:33.564Z,6.00
2019-03-30T01:32:02.087Z,5.90
2019-03-30T01:34:30.546Z,5.90
2019-03-30T01:36:58.959Z,5.90
2019-03-30T01:39:27.462Z,6.00
2019-03-30T01:41:55.942Z,6.00
2019-03-30T01:44:24.424Z,6.00
2019-03-30T01:46:52.845Z,5.90
2019-03-30T01:49:21.264Z,6.00
2019-03-30T01:51:49.681Z,6.10
2019-03-30T01:54:18.093Z,6.10
2019-03-30T01:56:46.661Z,6.10
2019-03-30T01:59:15.081Z,6.00
2019-03-30T02:01:43.488Z,6.00
2019-03-30T02:04:11.904Z,6.00
2019-03-30T02:06:40.348Z,6.10
2019-03-30T02:09:08.769Z,6.10
2019-03-30T02:11:37.214Z,6.10
2019-03-30T02:14:05.633Z,6.10
2019-03-30T02:16:34.117Z,6.00
2019-03-30T02:19:02.620Z,5.90
2019-03-30T02:21:31.024Z,5.90
2019-03-30T02:23:59.528Z,5.90
2019-03-30T02:26:28.076Z,6.00
2019-03-30T02:28:56.488Z,5.90
2019-03-30T02:31:24.973Z,5.90
2019-03-30T02:33:53.465Z,5.80
2019-03-30T02:36:21.961Z,5.80
2019-03-30T02:38:50.586Z,5.90
2019-03-30T02:41:19.071Z,5.90
2019-03-30T02:43:47.553Z,5.90
2019-03-30T02:46:15.977Z,5.90
2019-03-30T02:48:44.492Z,5.80
2019-03-30T02:51:12.990Z,5.80
2019-03-30T02:53:41.400Z,5.80
2019-03-30T02:56:09.937Z,5.60
2019-03-30T02:58:38.428Z,5.70
2019-03-30T03:01:06.914Z,5.60
2019-03-30T03:03:35.569Z,5.60
2019-03-30T03:06:03.985Z,5.70
2019-03-30T03:08:32.473Z,5.60
2019-03-30T03:11:00.886Z,5.50
2019-03-30T03:13:29.309Z,5.60
2019-03-30T03:15:57.733Z,5.70
2019-03-30T03:18:26.213Z,5.60
2019-03-30T03:21:07.432Z,5.70
2019-03-30T03:23:24.765Z,5.70
2019-03-30T03:25:53.173Z,5.70
2019-03-30T03:28:21.691Z,5.70
2019-03-30T03:30:50.089Z,5.70
2019-03-30T03:33:18.573Z,5.70
2019-03-30T03:35:46.990Z,5.60
2019-03-30T03:38:15.455Z,5.60
2019-03-30T03:40:43.819Z,5.70
2019-03-30T03:43:12.247Z,5.70
2019-03-30T03:45:40.737Z,5.60
2019-03-30T03:48:09.156Z,5.60
2019-03-30T03:50:44.523Z,5.50
2019-03-30T03:53:16.051Z,5.50
2019-03-30T03:55:45.009Z,5.40
2019-03-30T03:58:13.685Z,5.40
2019-03-30T04:00:42.104Z,5.50
2019-03-30T04:03:11.276Z,5.40
2019-03-30T04:05:39.957Z,5.40
2019-03-30T04:08:08.933Z,5.50
2019-03-30T04:10:38.118Z,5.40
2019-03-30T04:13:08.275Z,5.40
2019-03-30T04:15:36.789Z,5.30
2019-03-30T04:18:05.278Z,5.20
2019-03-30T04:20:33.761Z,5.20
2019-03-30T04:23:02.181Z,5.20
2019-03-30T04:25:30.669Z,5.20
2019-03-30T04:27:59.081Z,5.20
2019-03-30T04:30:27.573Z,5.30
2019-03-30T04:32:56.015Z,5.30
2019-03-30T04:35:24.411Z,5.30
2019-03-30T04:37:52.833Z,5.40
2019-03-30T04:40:21.253Z,5.40
2019-03-30T04:42:49.738Z,5.50
2019-03-30T04:45:18.264Z,5.50
2019-03-30T04:47:46.690Z,5.50
2019-03-30T04:50:15.105Z,5.60
2019-03-30T04:52:43.587Z,5.60
2019-03-30T04:55:12.008Z,5.70
2019-03-30T04:57:40.483Z,5.70
2019-03-30T05:00:08.840Z,5.60
2019-03-30T05:02:37.252Z,5.70
2019-03-30T05:05:07.112Z,5.70
2019-03-30T05:07:35.527Z,5.80
2019-03-30T05:10:06.885Z,5.80
2019-03-30T05:12:35.383Z,5.80
2019-03-30T05:15:04.939Z,5.90
2019-03-30T05:17:46.796Z,5.90
2019-03-30T05:20:04.280Z,6.00
2019-03-30T05:22:32.700Z,6.00
2019-03-30T05:25:01.356Z,6.10
2019-03-30T05:27:29.843Z,6.20
2019-03-30T05:29:58.253Z,6.20
2019-03-30T05:32:26.702Z,6.30
2019-03-30T05:34:55.156Z,6.30
2019-03-30T05:37:23.569Z,6.40
2019-03-30T05:39:52.002Z,6.50
2019-03-30T05:42:20.559Z,6.50
2019-03-30T05:44:48.977Z,6.60
2019-03-30T05:47:17.391Z,6.60
2019-03-30T05:49:45.875Z,6.70
2019-03-30T05:52:25.752Z,6.80
2019-03-30T05:54:44.437Z,6.80
2019-03-30T05:57:12.959Z,6.90
2019-03-30T05:59:41.401Z,6.90
2019-03-30T06:02:09.881Z,7.00
2019-03-30T06:04:38.371Z,7.10
2019-03-30T06:07:06.864Z,7.20
2019-03-30T06:09:35.396Z,7.30
2019-03-30T06:12:03.886Z,7.30
2019-03-30T06:14:32.363Z,7.30
2019-03-30T06:17:00.997Z,7.40
2019-03-30T06:19:29.523Z,7.40
2019-03-30T06:21:57.904Z,7.40
2019-03-30T06:24:28.349Z,7.50
2019-03-30T06:26:56.850Z,7.50
2019-03-30T06:29:25.365Z,7.70
2019-03-30T06:31:53.768Z,7.70
2019-03-30T06:34:24.111Z,7.80
2019-03-30T06:36:52.547Z,7.80
2019-03-30T06:39:21.056Z,7.80
2019-03-30T06:41:49.536Z,7.90
2019-03-30T06:44:18.085Z,8.00
2019-03-30T06:46:46.568Z,8.10
2019-03-30T06:49:15.052Z,8.10
2019-03-30T06:51:43.607Z,8.20
2019-03-30T06:54:14.639Z,8.30
2019-03-30T06:56:42.104Z,8.30
2019-03-30T06:59:10.597Z,8.40
2019-03-30T07:01:39.080Z,8.40
2019-03-30T07:04:11.053Z,8.50
2019-03-30T07:06:37.643Z,8.60
2019-03-30T07:09:06.202Z,8.60
2019-03-30T07:11:37.872Z,8.70
2019-03-30T07:14:06.363Z,8.70
2019-03-30T07:16:36.728Z,8.70
2019-03-30T07:19:05.383Z,8.70
2019-03-30T07:21:33.801Z,8.80
2019-03-30T07:24:02.284Z,8.80
2019-03-30T07:26:30.902Z,8.90
2019-03-30T07:28:59.393Z,8.90
2019-03-30T07:31:27.956Z,8.90
2019-03-30T07:33:56.369Z,9.00
2019-03-30T07:36:24.859Z,9.10
2019-03-30T07:38:53.353Z,9.20
2019-03-30T07:41:21.777Z,9.20
2019-03-30T07:43:50.251Z,9.30
2019-03-30T07:46:19.803Z,9.20
2019-03-30T07:48:48.367Z,9.30
2019-03-30T07:51:16.854Z,9.30
2019-03-30T07:53:45.354Z,9.30
2019-03-30T07:56:13.841Z,9.50
2019-03-30T07:58:42.256Z,9.60
2019-03-30T08:01:10.766Z,9.70
2019-03-30T08:03:39.156Z,9.80
2019-03-30T08:06:07.573Z,9.80
2019-03-30T08:08:36.063Z,9.80
2019-03-30T08:11:04.559Z,9.70
2019-03-30T08:13:33.057Z,9.90
2019-03-30T08:16:01.600Z,10.00
2019-03-30T08:18:30.085Z,10.10
2019-03-30T08:20:58.577Z,10.00
2019-03-30T08:23:39.867Z,10.10
2019-03-30T08:25:57.280Z,10.20
2019-03-30T08:28:25.723Z,10.30
2019-03-30T08:30:54.208Z,10.30
2019-03-30T08:33:22.630Z,10.30
2019-03-30T08:35:51.128Z,10.40
2019-03-30T08:38:19.652Z,10.60
2019-03-30T08:40:48.141Z,10.60
2019-03-30T08:43:16.632Z,10.60
2019-03-30T08:45:48.687Z,10.60
2019-03-30T08:48:15.259Z,10.70
2019-03-30T08:50:43.848Z,10.80
2019-03-30T08:53:16.369Z,11.00
2019-03-30T08:55:44.980Z,11.10
2019-03-30T08:58:13.414Z,11.10
2019-03-30T09:00:42.369Z,11.10
2019-03-30T09:03:10.897Z,11.10
2019-03-30T09:05:39.465Z,11.20
2019-03-30T09:08:08.215Z,11.30
2019-03-30T09:10:37.650Z,11.30
2019-03-30T09:13:06.089Z,11.50
2019-03-30T09:15:35.157Z,11.40
2019-03-30T09:18:03.644Z,11.50
2019-03-30T09:20:32.056Z,11.60
2019-03-30T09:23:00.468Z,11.70
2019-03-30T09:25:28.909Z,11.80
2019-03-30T09:27:57.745Z,11.90
2019-03-30T09:30:26.237Z,11.90
2019-03-30T09:32:54.728Z,11.90
2019-03-30T09:35:23.154Z,11.90
2019-03-30T09:37:51.571Z,12.10
2019-03-30T09:40:19.992Z,12.20
2019-03-30T09:42:48.537Z,12.00
2019-03-30T09:45:16.968Z,12.00
2019-03-30T09:47:45.467Z,12.00
2019-03-30T09:50:13.884Z,12.10
2019-03-30T09:52:42.303Z,12.10
2019-03-30T09:55:10.797Z,12.10
2019-03-30T09:57:39.214Z,12.20
2019-03-30T10:00:07.704Z,12.20
2019-03-30T10:02:36.117Z,12.20
2019-03-30T10:05:04.987Z,12.30
2019-03-30T10:07:33.403Z,12.40
2019-03-30T10:10:01.899Z,12.40
2019-03-30T10:12:30.389Z,12.50
2019-03-30T10:14:58.827Z,12.50
2019-03-30T10:17:27.314Z,12.50
2019-03-30T10:20:04.383Z,12.70
2019-03-30T10:22:25.868Z,12.70
2019-03-30T10:24:54.349Z,12.80
2019-03-30T10:27:22.897Z,12.70
2019-03-30T10:29:51.279Z,12.70
2019-03-30T10:32:19.958Z,12.80
2019-03-30T10:34:48.846Z,12.90
2019-03-30T10:37:17.428Z,12.90
2019-03-30T10:39:45.929Z,13.00
2019-03-30T10:42:14.408Z,13.00
2019-03-30T10:44:42.820Z,12.80
2019-03-30T10:47:11.356Z,13.00
2019-03-30T10:49:39.720Z,13.00
2019-03-30T10:52:08.302Z,13.10
2019-03-30T10:54:36.723Z,13.10
2019-03-30T10:57:05.140Z,13.10
2019-03-30T10:59:33.556Z,13.20
2019-03-30T11:02:02.048Z,13.10
2019-03-30T11:04:30.548Z,13.10
2019-03-30T11:06:59.031Z,13.20
2019-03-30T11:09:27.448Z,13.20
2019-03-30T11:11:55.934Z,13.30
2019-03-30T11:14:24.431Z,13.20
2019-03-30T11:16:52.853Z,13.40
2019-03-30T11:19:21.334Z,13.40
2019-03-30T11:21:49.844Z,13.30
2019-03-30T11:24:18.425Z,13.40
2019-03-30T11:26:47.006Z,13.50
2019-03-30T11:29:15.379Z,13.60
2019-03-30T11:31:43.781Z,13.60
2019-03-30T11:34:12.193Z,13.60
2019-03-30T11:36:42.466Z,13.60
2019-03-30T11:39:10.914Z,13.60
2019-03-30T11:41:41.704Z,13.60
2019-03-30T11:44:10.115Z,13.70
2019-03-30T11:46:38.605Z,13.70
2019-03-30T11:49:07.092Z,13.80
2019-03-30T11:51:35.501Z,13.70
2019-03-30T11:54:05.465Z,13.70
2019-03-30T11:56:34.111Z,13.80
2019-03-30T11:59:02.524Z,13.80
2019-03-30T12:01:31.021Z,13.80
2019-03-30T12:03:59.424Z,13.90
2019-03-30T12:06:27.840Z,13.80
2019-03-30T12:08:56.252Z,14.00
2019-03-30T12:11:24.760Z,13.90
2019-03-30T12:13:53.235Z,13.70
2019-03-30T12:16:21.652Z,13.70
2019-03-30T12:18:50.158Z,13.70
2019-03-30T12:21:20.405Z,13.90
2019-03-30T12:23:48.859Z,13.80
2019-03-30T12:26:17.360Z,13.80
2019-03-30T12:28:45.797Z,13.80
2019-03-30T12:31:14.216Z,13.90
2019-03-30T12:33:42.780Z,14.00
2019-03-30T12:36:11.344Z,14.10
2019-03-30T12:38:39.769Z,13.80
2019-03-30T12:41:08.188Z,13.80
2019-03-30T12:43:39.006Z,13.80
2019-03-30T12:46:06.815Z,13.80
2019-03-30T12:48:35.307Z,13.90
2019-03-30T12:51:03.737Z,13.90
2019-03-30T12:53:32.220Z,13.80
2019-03-30T12:56:00.720Z,13.80
2019-03-30T12:58:29.208Z,13.80
2019-03-30T13:00:57.703Z,13.80
2019-03-30T13:03:26.132Z,13.80
2019-03-30T13:05:54.546Z,13.70
2019-03-30T13:08:23.041Z,13.70
2019-03-30T13:10:51.531Z,13.90
2019-03-30T13:13:20.102Z,14.10
2019-03-30T13:15:48.544Z,13.80
2019-03-30T13:18:16.968Z,13.90
2019-03-30T13:20:45.388Z,13.90
2019-03-30T13:23:13.884Z,13.90
2019-03-30T13:25:42.372Z,13.90
2019-03-30T13:28:10.815Z,14.00
2019-03-30T13:30:39.291Z,14.00
2019-03-30T13:33:07.708Z,13.90
2019-03-30T13:35:36.136Z,14.00
2019-03-30T13:38:04.553Z,14.00
2019-03-30T13:40:32.972Z,14.10
2019-03-30T13:43:01.460Z,14.00
2019-03-30T13:45:29.976Z,14.10
2019-03-30T13:47:58.469Z,14.10
2019-03-30T13:50:26.895Z,14.00
2019-03-30T13:52:55.310Z,14.00
2019-03-30T13:55:23.835Z,14.00
2019-03-30T13:57:52.249Z,14.20
2019-03-30T14:00:23.760Z,14.20
2019-03-30T14:02:52.160Z,14.20
2019-03-30T14:05:20.581Z,14.20
2019-03-30T14:07:49.102Z,14.20
2019-03-30T14:10:17.574Z,14.40
2019-03-30T14:12:46.124Z,14.50
2019-03-30T14:15:14.537Z,14.50
2019-03-30T14:17:42.949Z,14.40
2019-03-30T14:20:11.445Z,14.30
2019-03-30T14:22:39.936Z,14.30
2019-03-30T14:25:08.428Z,14.20
2019-03-30T14:27:36.841Z,14.20
2019-03-30T14:30:10.224Z,14.10
2019-03-30T14:32:38.769Z,13.90
2019-03-30T14:35:07.543Z,13.90
2019-03-30T14:37:38.502Z,13.90
2019-03-30T14:40:07.748Z,13.90
2019-03-30T14:42:36.264Z,13.80
2019-03-30T14:45:07.591Z,13.70
2019-03-30T14:47:36.032Z,13.70
2019-03-30T14:50:07.372Z,13.70
2019-03-30T14:52:36.064Z,13.70
2019-03-30T14:55:06.783Z,13.70
2019-03-30T14:57:35.193Z,13.60
2019-03-30T15:00:04.257Z,13.60
2019-03-30T15:02:32.679Z,13.60
2019-03-30T15:05:01.643Z,13.50
2019-03-30T15:07:30.288Z,13.60
2019-03-30T15:09:58.712Z,13.40
2019-03-30T15:12:27.204Z,13.30
2019-03-30T15:14:55.642Z,13.30
2019-03-30T15:17:24.108Z,13.40
2019-03-30T15:19:52.604Z,13.40
2019-03-30T15:22:21.096Z,13.30
2019-03-30T15:24:49.520Z,13.20
2019-03-30T15:27:17.937Z,13.20
2019-03-30T15:29:46.348Z,13.30
2019-03-30T15:32:14.892Z,13.30
2019-03-30T15:34:43.280Z,13.30
2019-03-30T15:37:11.872Z,13.30
2019-03-30T15:39:40.508Z,13.30
2019-03-30T15:42:08.920Z,13.10
2019-03-30T15:44:37.424Z,13.00
2019-03-30T15:47:05.841Z,12.90
2019-03-30T15:49:34.336Z,12.80
2019-03-30T15:52:13.363Z,12.80
2019-03-30T15:54:33.040Z,12.70
2019-03-30T15:57:13.571Z,12.70
2019-03-30T15:59:31.684Z,12.80
2019-03-30T16:02:00.188Z,12.80
2019-03-30T16:04:28.621Z,12.80
2019-03-30T16:06:57.105Z,12.70
2019-03-30T16:09:25.604Z,12.60
2019-03-30T16:11:54.096Z,12.40
2019-03-30T16:14:22.513Z,12.30
2019-03-30T16:16:51.004Z,12.20
2019-03-30T16:19:19.496Z,12.10
2019-03-30T16:21:49.622Z,11.90
2019-03-30T16:24:18.063Z,11.80
2019-03-30T16:26:46.573Z,11.60
2019-03-30T16:29:15.056Z,11.50
2019-03-30T16:31:43.481Z,11.40
2019-03-30T16:34:11.976Z,11.30
2019-03-30T16:36:40.545Z,11.20
2019-03-30T16:39:09.044Z,11.10
2019-03-30T16:41:37.552Z,11.00
2019-03-30T16:44:06.072Z,11.00
2019-03-30T16:46:34.476Z,10.90
2019-03-30T16:49:02.963Z,10.80
2019-03-30T16:51:31.471Z,10.70
2019-03-30T16:53:59.888Z,10.60
2019-03-30T16:56:28.305Z,10.50
2019-03-30T16:58:56.725Z,10.40
2019-03-30T17:01:25.219Z,10.30
2019-03-30T17:03:53.676Z,10.30
2019-03-30T17:06:22.092Z,10.20
2019-03-30T17:08:50.585Z,10.10
2019-03-30T17:11:19.080Z,10.00
2019-03-30T17:13:47.497Z,9.90
2019-03-30T17:16:15.997Z,9.90
2019-03-30T17:18:44.415Z,9.70
2019-03-30T17:21:12.828Z,9.70
2019-03-30T17:23:41.313Z,9.60
2019-03-30T17:26:09.801Z,9.60
2019-03-30T17:28:38.289Z,9.60
2019-03-30T17:31:06.781Z,9.50
2019-03-30T17:33:36.389Z,9.40
2019-03-30T17:36:05.388Z,9.30
2019-03-30T17:38:33.868Z,9.20
2019-03-30T17:41:02.279Z,9.20
2019-03-30T17:43:30.768Z,9.20
2019-03-30T17:45:59.191Z,9.20
2019-03-30T17:48:29.557Z,9.10
2019-03-30T17:50:58.596Z,9.00
2019-03-30T17:53:27.210Z,8.90
2019-03-30T17:55:55.728Z,8.90
2019-03-30T17:58:24.218Z,8.80
2019-03-30T18:00:52.796Z,8.70
2019-03-30T18:03:21.389Z,8.70
2019-03-30T18:05:49.801Z,8.70
2019-03-30T18:08:18.287Z,8.60
2019-03-30T18:10:46.845Z,8.60
2019-03-30T18:13:15.337Z,8.50
2019-03-30T18:15:43.769Z,8.50
2019-03-30T18:18:12.184Z,8.40
2019-03-30T18:20:40.608Z,8.40
2019-03-30T18:23:09.153Z,8.30
2019-03-30T18:25:37.590Z,8.30
2019-03-30T18:28:06.087Z,8.20
2019-03-30T18:30:36.757Z,8.10
2019-03-30T18:33:05.587Z,8.10
2019-03-30T18:35:34.192Z,8.00
2019-03-30T18:38:05.645Z,7.90
2019-03-30T18:40:34.138Z,7.90
2019-03-30T18:43:03.337Z,7.80
2019-03-30T18:45:33.859Z,7.80
2019-03-30T18:48:16.012Z,7.70
2019-03-30T18:50:44.823Z,7.70
2019-03-30T18:53:14.287Z,7.60
2019-03-30T18:55:42.760Z,7.70
2019-03-30T18:58:11.324Z,7.60
2019-03-30T19:00:39.811Z,7.50
2019-03-30T19:03:08.313Z,7.50
2019-03-30T19:05:36.881Z,7.40
2019-03-30T19:08:05.323Z,7.40
2019-03-30T19:10:33.814Z,7.40
2019-03-30T19:13:02.368Z,7.30
2019-03-30T19:15:30.864Z,7.20
2019-03-30T19:17:59.351Z,7.20
2019-03-30T19:20:27.840Z,7.20
2019-03-30T19:22:56.283Z,7.10
2019-03-30T19:25:24.757Z,7.10
2019-03-30T19:27:53.176Z,7.10
2019-03-30T19:30:21.713Z,7.00
2019-03-30T19:32:50.201Z,6.90
2019-03-30T19:35:18.692Z,6.90
2019-03-30T19:37:47.104Z,6.90
2019-03-30T19:40:15.595Z,6.80
2019-03-30T19:42:44.082Z,6.70
2019-03-30T19:45:12.674Z,6.70
2019-03-30T19:47:41.160Z,6.70
2019-03-30T19:50:09.851Z,6.70
2019-03-30T19:52:40.016Z,6.70
2019-03-30T19:55:08.440Z,6.60
2019-03-30T19:57:36.854Z,6.60
2019-03-30T20:00:08.109Z,6.60
2019-03-30T20:02:36.605Z,6.60
2019-03-30T20:05:06.491Z,6.50
2019-03-30T20:07:34.977Z,6.50
2019-03-30T20:10:03.466Z,6.50
2019-03-30T20:12:32.066Z,6.50
2019-03-30T20:15:00.724Z,6.40
2019-03-30T20:17:29.213Z,6.40
2019-03-30T20:19:57.624Z,6.30
2019-03-30T20:22:26.117Z,6.30
2019-03-30T20:24:54.604Z,6.30
2019-03-30T20:27:23.103Z,6.30
2019-03-30T20:29:51.585Z,6.30
2019-03-30T20:32:20.159Z,6.20
2019-03-30T20:34:48.673Z,6.20
2019-03-30T20:37:17.161Z,6.20
2019-03-30T20:39:45.657Z,6.20
2019-03-30T20:42:14.147Z,6.10
2019-03-30T20:44:42.635Z,6.10
2019-03-30T20:47:11.124Z,6.10
2019-03-30T20:49:39.724Z,6.00
2019-03-30T20:52:08.219Z,6.00
2019-03-30T20:54:36.798Z,6.00
2019-03-30T20:57:05.292Z,5.90
2019-03-30T20:59:39.801Z,5.90
2019-03-30T21:02:03.935Z,5.90
2019-03-30T21:04:32.417Z,5.90
2019-03-30T21:07:00.840Z,5.90
2019-03-30T21:09:29.357Z,5.90
2019-03-30T21:11:57.922Z,5.80
2019-03-30T21:14:26.468Z,5.80
2019-03-30T21:16:55.004Z,5.80
2019-03-30T21:19:23.424Z,5.80
2019-03-30T21:21:51.835Z,5.80
2019-03-30T21:24:20.328Z,5.80
2019-03-30T21:26:48.837Z,5.80
2019-03-30T21:29:17.363Z,5.80
2019-03-30T21:31:49.142Z,5.70
2019-03-30T21:34:15.988Z,5.70
2019-03-30T21:36:44.472Z,5.70
2019-03-30T21:39:12.887Z,5.70
2019-03-30T21:41:41.291Z,5.60
2019-03-30T21:44:21.317Z,5.60
2019-03-30T21:46:39.847Z,5.70
2019-03-30T21:49:08.344Z,5.70
2019-03-30T21:51:36.767Z,5.60
2019-03-30T21:54:05.173Z,5.60
2019-03-30T21:56:33.769Z,5.60
2019-03-30T21:59:02.623Z,5.60
2019-03-30T22:01:31.045Z,5.60
2019-03-30T22:03:59.534Z,5.70
2019-03-30T22:06:27.944Z,5.70
2019-03-30T22:08:56.446Z,5.70
2019-03-30T22:11:24.862Z,5.60
2019-03-30T22:13:53.290Z,5.60
2019-03-30T22:16:21.765Z,5.60
2019-03-30T22:18:50.253Z,5.60
2019-03-30T22:21:18.736Z,5.50
2019-03-30T22:23:47.207Z,5.50
2019-03-30T22:26:15.632Z,5.40
2019-03-30T22:28:44.051Z,5.40
2019-03-30T22:31:12.475Z,5.40
2019-03-30T22:33:40.957Z,5.40
2019-03-30T22:36:09.433Z,5.40
2019-03-30T22:38:37.865Z,5.30
2019-03-30T22:41:06.332Z,5.40
2019-03-30T22:43:34.824Z,5.30
2019-03-30T22:46:03.382Z,5.30
2019-03-30T22:48:31.872Z,5.30
2019-03-30T22:51:00.410Z,5.20
2019-03-30T22:53:28.780Z,5.20
2019-03-30T22:55:57.203Z,5.10
2019-03-30T22:58:25.684Z,5.10
2019-03-30T23:00:56.018Z,5.10
2019-03-30T23:03:24.502Z,5.10
2019-03-30T23:05:54.555Z,5.10
2019-03-30T23:08:26.033Z,5.00
2019-03-30T23:10:59.373Z,5.00
2019-03-30T23:13:30.735Z,5.00
2019-03-30T23:15:59.151Z,5.00
2019-03-30T23:18:31.562Z,5.10
2019-03-30T23:20:59.295Z,5.00
2019-03-30T23:23:29.720Z,5.00
2019-03-30T23:25:58.212Z,5.00
2019-03-30T23:28:27.924Z,5.00
2019-03-30T23:30:58.890Z,5.00
2019-03-30T23:33:27.272Z,5.00
2019-03-30T23:35:55.701Z,5.00
2019-03-30T23:38:24.258Z,5.00
2019-03-30T23:40:52.745Z,5.00
2019-03-30T23:43:21.233Z,5.00
2019-03-30T23:45:51.817Z,5.00
2019-03-30T23:48:22.500Z,5.10
2019-03-30T23:50:50.912Z,5.10
2019-03-30T23:53:19.406Z,5.10
2019-03-30T23:55:49.020Z,5.00
2019-03-30T23:58:17.501Z,5.00
